sensor_id;sensor_type;location;lat;lon;timestamp;P1;durP1;ratioP1;P2;durP2;ratioP2
45734;SDS011;31446;49.632;8.328;2024-03-23T01:07:18;21.50;;;9.97;;
45734;SDS011;31446;49.632;8.328;2024-03-23T01:22:21;17.25;;;10.68;;
45734;SDS011;31446;49.632;8.328;2024-03-23T01:37:27;21.13;;;10.70;;
45734;SDS011;31446;49.632;8.328;2024-03-23T01:52:30;20.33;;;11.38;;
45734;SDS011;31446;49.632;8.328;2024-03-23T02:07:34;25.40;;;13.32;;
45734;SDS011;31446;49.632;8.328;2024-03-23T02:22:40;22.60;;;12.65;;
45734;SDS011;31446;49.632;8.328;2024-03-23T02:37:44;21.15;;;12.85;;
45734;SDS011;31446;49.632;8.328;2024-03-23T02:52:49;26.20;;;15.80;;
45734;SDS011;31446;49.632;8.328;2024-03-23T03:07:52;27.55;;;13.60;;
45734;SDS011;31446;49.632;8.328;2024-03-23T03:22:56;28.98;;;16.00;;
45734;SDS011;31446;49.632;8.328;2024-03-23T03:37:59;30.50;;;16.58;;
45734;SDS011;31446;49.632;8.328;2024-03-23T03:53:03;34.35;;;17.55;;
45734;SDS011;31446;49.632;8.328;2024-03-23T04:08:07;33.63;;;17.15;;
45734;SDS011;31446;49.632;8.328;2024-03-23T04:23:10;32.10;;;17.08;;
45734;SDS011;31446;49.632;8.328;2024-03-23T04:38:14;29.05;;;18.00;;
45734;SDS011;31446;49.632;8.328;2024-03-23T04:53:17;39.13;;;8.60;;
45734;SDS011;31446;49.632;8.328;2024-03-23T05:08:23;5.95;;;3.83;;
45734;SDS011;31446;49.632;8.328;2024-03-23T05:23:27;4.72;;;4.22;;
45734;SDS011;31446;49.632;8.328;2024-03-23T05:38:31;3.97;;;2.83;;
45734;SDS011;31446;49.632;8.328;2024-03-23T05:53:35;5.05;;;4.07;;
45734;SDS011;31446;49.632;8.328;2024-03-23T06:08:38;2.55;;;2.35;;
45734;SDS011;31446;49.632;8.328;2024-03-23T06:23:43;0.75;;;0.75;;
45734;SDS011;31446;49.632;8.328;2024-03-23T06:53:52;0.50;;;0.40;;
45734;SDS011;31446;49.632;8.328;2024-03-23T07:08:55;1.05;;;0.30;;
45734;SDS011;31446;49.632;8.328;2024-03-23T07:23:59;1.13;;;0.57;;
45734;SDS011;31446;49.632;8.328;2024-03-23T07:39:02;4.03;;;0.82;;
45734;SDS011;31446;49.632;8.328;2024-03-23T07:54:06;6.50;;;1.20;;
45734;SDS011;31446;49.632;8.328;2024-03-23T08:09:10;7.85;;;1.30;;
45734;SDS011;31446;49.632;8.328;2024-03-23T08:24:13;9.07;;;2.13;;
45734;SDS011;31446;49.632;8.328;2024-03-23T08:39:17;7.43;;;2.28;;
45734;SDS011;31446;49.632;8.328;2024-03-23T08:54:21;11.55;;;3.55;;
45734;SDS011;31446;49.632;8.328;2024-03-23T09:09:25;6.10;;;1.85;;
45734;SDS011;31446;49.632;8.328;2024-03-23T09:24:29;10.15;;;2.75;;
45734;SDS011;31446;49.632;8.328;2024-03-23T09:39:32;8.13;;;3.28;;
45734;SDS011;31446;49.632;8.328;2024-03-23T09:54:36;8.18;;;1.70;;
45734;SDS011;31446;49.632;8.328;2024-03-23T10:09:42;11.65;;;3.03;;
45734;SDS011;31446;49.632;8.328;2024-03-23T10:24:46;14.00;;;2.55;;
45734;SDS011;31446;49.632;8.328;2024-03-23T10:39:50;12.68;;;1.77;;
45734;SDS011;31446;49.632;8.328;2024-03-23T10:54:53;13.80;;;2.28;;
45734;SDS011;31446;49.632;8.328;2024-03-23T11:09:59;9.27;;;1.50;;
45734;SDS011;31446;49.632;8.328;2024-03-23T11:25:03;3.57;;;1.17;;
45734;SDS011;31446;49.632;8.328;2024-03-23T11:40:20;3.03;;;1.40;;
45734;SDS011;31446;49.632;8.328;2024-03-23T11:55:24;12.00;;;2.22;;
45734;SDS011;31446;49.632;8.328;2024-03-23T12:10:28;8.23;;;1.70;;
45734;SDS011;31446;49.632;8.328;2024-03-23T12:25:32;1.90;;;0.80;;
45734;SDS011;31446;49.632;8.328;2024-03-23T12:40:35;6.53;;;1.05;;
45734;SDS011;31446;49.632;8.328;2024-03-23T12:55:39;3.83;;;1.10;;
45734;SDS011;31446;49.632;8.328;2024-03-23T13:10:43;8.23;;;1.30;;
45734;SDS011;31446;49.632;8.328;2024-03-23T13:25:51;4.43;;;0.68;;
45734;SDS011;31446;49.632;8.328;2024-03-23T13:40:56;4.93;;;0.60;;
45734;SDS011;31446;49.632;8.328;2024-03-23T13:56:00;1.03;;;0.30;;
45734;SDS011;31446;49.632;8.328;2024-03-23T14:11:05;2.60;;;0.70;;
45734;SDS011;31446;49.632;8.328;2024-03-23T14:26:08;1.80;;;0.50;;
45734;SDS011;31446;49.632;8.328;2024-03-23T14:41:12;2.17;;;0.65;;
45734;SDS011;31446;49.632;8.328;2024-03-23T14:56:15;1.60;;;0.20;;
45734;SDS011;31446;49.632;8.328;2024-03-23T15:11:19;1.38;;;0.32;;
45734;SDS011;31446;49.632;8.328;2024-03-23T15:26:23;2.17;;;0.38;;
45734;SDS011;31446;49.632;8.328;2024-03-23T15:41:26;2.05;;;0.60;;
45734;SDS011;31446;49.632;8.328;2024-03-23T15:56:31;0.65;;;0.20;;
45734;SDS011;31446;49.632;8.328;2024-03-23T16:11:35;0.50;;;0.20;;
45734;SDS011;31446;49.632;8.328;2024-03-23T16:26:38;2.30;;;0.45;;
45734;SDS011;31446;49.632;8.328;2024-03-23T16:41:42;2.15;;;0.75;;
45734;SDS011;31446;49.632;8.328;2024-03-23T16:56:45;2.63;;;0.32;;
45734;SDS011;31446;49.632;8.328;2024-03-23T17:11:49;5.22;;;0.40;;
45734;SDS011;31446;49.632;8.328;2024-03-23T17:26:52;2.15;;;0.47;;
45734;SDS011;31446;49.632;8.328;2024-03-23T17:41:56;1.75;;;0.40;;
45734;SDS011;31446;49.632;8.328;2024-03-23T17:57:00;1.40;;;0.50;;
45734;SDS011;31446;49.632;8.328;2024-03-23T18:12:03;3.90;;;0.47;;
45734;SDS011;31446;49.632;8.328;2024-03-23T18:27:08;4.25;;;0.60;;
45734;SDS011;31446;49.632;8.328;2024-03-23T18:42:12;2.20;;;1.05;;
45734;SDS011;31446;49.632;8.328;2024-03-23T18:57:15;2.40;;;1.40;;
45734;SDS011;31446;49.632;8.328;2024-03-23T19:12:19;5.63;;;1.63;;
45734;SDS011;31446;49.632;8.328;2024-03-23T19:27:22;3.03;;;1.90;;
45734;SDS011;31446;49.632;8.328;2024-03-23T19:42:26;2.83;;;0.77;;
45734;SDS011;31446;49.632;8.328;2024-03-23T19:57:30;2.90;;;1.13;;
45734;SDS011;31446;49.632;8.328;2024-03-23T20:12:33;4.70;;;2.20;;
45734;SDS011;31446;49.632;8.328;2024-03-23T20:27:37;2.13;;;1.88;;
45734;SDS011;31446;49.632;8.328;2024-03-23T20:42:41;7.43;;;3.00;;
45734;SDS011;31446;49.632;8.328;2024-03-23T20:57:44;5.55;;;1.77;;
45734;SDS011;31446;49.632;8.328;2024-03-23T21:12:48;6.43;;;2.13;;
45734;SDS011;31446;49.632;8.328;2024-03-23T21:27:52;4.30;;;2.00;;
45734;SDS011;31446;49.632;8.328;2024-03-23T21:42:56;3.97;;;1.90;;
45734;SDS011;31446;49.632;8.328;2024-03-23T21:57:59;2.57;;;1.40;;
45734;SDS011;31446;49.632;8.328;2024-03-23T22:13:03;5.60;;;1.73;;
45734;SDS011;31446;49.632;8.328;2024-03-23T22:28:07;5.53;;;1.50;;
45734;SDS011;31446;49.632;8.328;2024-03-23T22:43:10;1.35;;;1.10;;
45734;SDS011;31446;49.632;8.328;2024-03-23T22:58:14;4.63;;;1.10;;
45734;SDS011;31446;49.632;8.328;2024-03-23T23:13:18;6.30;;;1.43;;
45734;SDS011;31446;49.632;8.328;2024-03-23T23:28:22;1.37;;;0.83;;
45734;SDS011;31446;49.632;8.328;2024-03-23T23:43:25;5.87;;;1.40;;
45734;SDS011;31446;49.632;8.328;2024-03-23T23:58:29;6.05;;;1.90;;
